createdAt,value
2022-12-31T00:01:05.328Z,10.60
2022-12-31T00:03:33.825Z,10.60
2022-12-31T00:06:01.876Z,10.60
2022-12-31T00:08:31.266Z,10.60
2022-12-31T00:10:59.277Z,10.90
2022-12-31T00:13:27.278Z,10.70
2022-12-31T00:15:55.283Z,10.50
2022-12-31T00:18:23.315Z,10.60
2022-12-31T00:20:51.279Z,10.50
2022-12-31T00:23:19.427Z,10.40
2022-12-31T00:25:48.811Z,10.40
2022-12-31T00:28:16.976Z,10.50
2022-12-31T00:30:44.987Z,10.60
2022-12-31T00:33:13.002Z,10.60
2022-12-31T00:35:41.039Z,10.70
2022-12-31T00:38:08.986Z,10.60
2022-12-31T00:40:36.914Z,10.50
2022-12-31T00:43:06.286Z,10.50
2022-12-31T00:45:34.314Z,10.50
2022-12-31T00:48:02.279Z,10.50
2022-12-31T00:50:30.231Z,10.60
2022-12-31T00:52:58.300Z,10.60
2022-12-31T00:55:26.377Z,10.60
2022-12-31T00:57:54.453Z,10.50
2022-12-31T01:00:24.519Z,10.60
2022-12-31T01:02:52.649Z,10.60
2022-12-31T01:05:20.709Z,10.50
2022-12-31T01:07:48.736Z,10.60
2022-12-31T01:10:37.271Z,10.40
2022-12-31T01:13:05.392Z,10.50
2022-12-31T01:15:36.342Z,10.30
2022-12-31T01:18:04.453Z,10.20
2022-12-31T01:20:32.506Z,10.00
2022-12-31T01:23:00.442Z,10.00
2022-12-31T01:25:28.379Z,10.00
2022-12-31T01:27:56.377Z,10.20
2022-12-31T01:30:24.433Z,10.20
2022-12-31T01:32:53.820Z,10.20
2022-12-31T01:35:21.887Z,10.20
2022-12-31T01:37:49.894Z,10.10
2022-12-31T01:40:18.019Z,10.20
2022-12-31T01:42:46.027Z,10.20
2022-12-31T01:45:15.512Z,10.30
2022-12-31T01:47:46.159Z,10.20
2022-12-31T01:50:19.268Z,10.30
2022-12-31T01:52:50.779Z,10.30
2022-12-31T01:55:22.546Z,10.30
2022-12-31T01:57:55.445Z,10.20
2022-12-31T02:00:23.513Z,10.20
2022-12-31T02:02:52.029Z,10.20
2022-12-31T02:05:28.165Z,10.30
2022-12-31T02:07:57.161Z,10.30
2022-12-31T02:10:25.130Z,10.20
2022-12-31T02:12:53.667Z,10.30
2022-12-31T02:15:27.618Z,10.40
2022-12-31T02:18:03.319Z,10.30
2022-12-31T02:21:13.295Z,10.50
2022-12-31T02:24:08.598Z,10.60
2022-12-31T02:26:50.826Z,10.60
2022-12-31T02:29:57.718Z,10.30
2022-12-31T02:32:32.742Z,10.30
2022-12-31T02:35:05.549Z,10.60
2022-12-31T02:37:36.892Z,10.60
2022-12-31T02:40:07.678Z,10.70
2022-12-31T02:42:35.560Z,10.70
2022-12-31T02:45:03.541Z,10.80
2022-12-31T02:47:44.635Z,10.80
2022-12-31T02:50:27.704Z,10.90
2022-12-31T02:53:05.009Z,11.00
2022-12-31T02:55:41.307Z,11.00
2022-12-31T02:58:16.423Z,11.10
2022-12-31T03:01:07.544Z,11.00
2022-12-31T03:03:42.146Z,11.00
2022-12-31T03:06:12.186Z,11.00
2022-12-31T03:08:57.359Z,11.00
2022-12-31T03:11:39.312Z,11.00
2022-12-31T03:14:07.447Z,11.20
2022-12-31T03:16:35.795Z,11.10
2022-12-31T03:19:22.736Z,11.10
2022-12-31T03:22:08.120Z,11.20
2022-12-31T03:24:53.381Z,11.30
2022-12-31T03:27:21.351Z,11.30
2022-12-31T03:29:49.296Z,11.10
2022-12-31T03:32:17.292Z,11.20
2022-12-31T03:34:46.668Z,11.20
2022-12-31T03:37:14.716Z,11.10
2022-12-31T03:39:42.801Z,11.30
2022-12-31T03:42:10.767Z,11.30
2022-12-31T03:44:38.675Z,11.20
2022-12-31T03:47:06.988Z,11.20
2022-12-31T03:49:34.920Z,11.10
2022-12-31T03:52:06.375Z,10.90
2022-12-31T03:54:34.353Z,10.90
2022-12-31T03:57:02.387Z,10.90
2022-12-31T03:59:30.321Z,10.90
2022-12-31T04:01:58.364Z,11.00
2022-12-31T04:04:26.476Z,11.20
2022-12-31T04:06:54.374Z,11.20
2022-12-31T04:09:23.911Z,11.20
2022-12-31T04:11:51.800Z,11.20
2022-12-31T04:14:19.839Z,11.20
2022-12-31T04:16:47.907Z,11.20
2022-12-31T04:19:15.870Z,11.30
2022-12-31T04:21:43.931Z,11.30
2022-12-31T04:24:12.038Z,11.30
2022-12-31T04:26:42.398Z,11.20
2022-12-31T04:29:10.382Z,11.30
2022-12-31T04:31:38.611Z,11.20
2022-12-31T04:34:06.548Z,11.10
2022-12-31T04:36:34.657Z,11.10
2022-12-31T04:39:02.670Z,11.20
2022-12-31T04:41:30.689Z,11.10
2022-12-31T04:44:00.614Z,11.10
2022-12-31T04:46:30.798Z,11.20
2022-12-31T04:48:59.011Z,11.30
2022-12-31T04:51:28.082Z,11.30
2022-12-31T04:53:56.073Z,11.30
2022-12-31T04:56:24.770Z,11.20
2022-12-31T04:58:52.693Z,11.20
2022-12-31T05:01:22.814Z,11.20
2022-12-31T05:03:51.753Z,11.20
2022-12-31T05:06:22.113Z,11.20
2022-12-31T05:08:50.937Z,11.20
2022-12-31T05:11:19.149Z,11.20
2022-12-31T05:13:47.438Z,11.20
2022-12-31T05:16:15.690Z,11.20
2022-12-31T05:18:45.101Z,11.30
2022-12-31T05:21:20.383Z,11.20
2022-12-31T05:23:49.142Z,11.20
2022-12-31T05:26:17.910Z,11.40
2022-12-31T05:28:45.793Z,11.50
2022-12-31T05:31:14.388Z,11.50
2022-12-31T05:33:42.728Z,11.50
2022-12-31T05:36:12.176Z,11.50
2022-12-31T05:38:40.155Z,11.50
2022-12-31T05:41:09.416Z,11.50
2022-12-31T05:43:37.417Z,11.40
2022-12-31T05:46:06.371Z,11.30
2022-12-31T05:48:34.379Z,11.20
2022-12-31T05:51:02.789Z,11.30
2022-12-31T05:53:34.309Z,11.30
2022-12-31T05:56:02.450Z,11.20
2022-12-31T05:58:30.396Z,11.20
2022-12-31T06:00:58.447Z,11.10
2022-12-31T06:03:26.509Z,10.90
2022-12-31T06:05:54.638Z,11.00
2022-12-31T06:08:23.974Z,11.00
2022-12-31T06:10:53.368Z,11.00
2022-12-31T06:13:21.692Z,11.00
2022-12-31T06:15:49.693Z,11.10
2022-12-31T06:18:17.613Z,11.10
2022-12-31T06:20:45.616Z,11.20
2022-12-31T06:23:13.566Z,11.10
2022-12-31T06:25:42.106Z,11.20
2022-12-31T06:28:19.512Z,11.20
2022-12-31T06:30:48.402Z,11.20
2022-12-31T06:33:16.462Z,11.10
2022-12-31T06:35:44.505Z,11.10
2022-12-31T06:38:12.497Z,11.10
2022-12-31T06:40:40.437Z,11.10
2022-12-31T06:43:08.372Z,11.00
2022-12-31T06:45:39.520Z,10.90
2022-12-31T06:48:08.188Z,10.80
2022-12-31T06:50:36.571Z,10.60
2022-12-31T06:53:04.799Z,10.40
2022-12-31T06:55:33.748Z,10.30
2022-12-31T06:58:05.420Z,10.20
2022-12-31T07:00:37.990Z,10.10
2022-12-31T07:03:25.816Z,10.20
2022-12-31T07:05:57.726Z,10.20
2022-12-31T07:08:38.171Z,10.30
2022-12-31T07:11:13.218Z,10.30
2022-12-31T07:14:07.979Z,10.40
2022-12-31T07:16:51.059Z,10.60
2022-12-31T07:19:29.788Z,10.60
2022-12-31T07:22:00.107Z,10.70
2022-12-31T07:24:29.016Z,10.80
2022-12-31T07:27:13.829Z,10.80
2022-12-31T07:29:59.454Z,10.70
2022-12-31T07:32:41.770Z,10.60
2022-12-31T07:35:19.841Z,10.50
2022-12-31T07:37:56.524Z,10.60
2022-12-31T07:40:33.915Z,10.60
2022-12-31T07:43:10.353Z,10.50
2022-12-31T07:45:45.645Z,10.50
2022-12-31T07:48:25.438Z,10.70
2022-12-31T07:50:55.488Z,10.70
2022-12-31T07:53:24.571Z,10.80
2022-12-31T07:56:01.801Z,10.80
2022-12-31T07:58:51.721Z,11.00
2022-12-31T08:01:31.537Z,11.00
2022-12-31T08:04:05.893Z,11.00
2022-12-31T08:06:44.715Z,11.00
2022-12-31T08:09:25.635Z,11.00
2022-12-31T08:11:57.690Z,11.00
2022-12-31T08:14:26.850Z,11.20
2022-12-31T08:16:55.959Z,11.20
2022-12-31T08:19:28.688Z,11.30
2022-12-31T08:22:09.828Z,11.40
2022-12-31T08:24:50.858Z,11.40
2022-12-31T08:27:24.892Z,11.40
2022-12-31T08:30:02.209Z,11.30
2022-12-31T08:32:37.775Z,11.20
2022-12-31T08:35:18.173Z,11.20
2022-12-31T08:37:52.497Z,11.10
2022-12-31T08:40:26.317Z,11.10
2022-12-31T08:43:20.069Z,11.10
2022-12-31T08:45:50.377Z,11.10
2022-12-31T08:48:29.223Z,11.00
2022-12-31T08:50:59.494Z,11.00
2022-12-31T08:53:28.077Z,11.20
2022-12-31T08:56:02.692Z,11.20
2022-12-31T08:58:42.065Z,11.30
2022-12-31T09:01:10.592Z,11.40
2022-12-31T09:03:54.820Z,11.60
2022-12-31T09:06:30.308Z,11.80
2022-12-31T09:09:04.237Z,11.90
2022-12-31T09:11:44.289Z,12.10
2022-12-31T09:14:26.725Z,12.30
2022-12-31T09:17:03.205Z,12.20
2022-12-31T09:19:31.298Z,12.20
2022-12-31T09:22:01.204Z,12.40
2022-12-31T09:24:29.575Z,12.40
2022-12-31T09:27:05.790Z,12.50
2022-12-31T09:29:48.830Z,12.50
2022-12-31T09:32:26.136Z,12.50
2022-12-31T09:34:58.711Z,12.60
2022-12-31T09:37:39.646Z,12.90
2022-12-31T09:40:48.607Z,12.90
2022-12-31T09:44:01.439Z,13.00
2022-12-31T09:47:12.353Z,13.10
2022-12-31T09:50:11.106Z,13.40
2022-12-31T09:52:57.499Z,13.60
2022-12-31T09:55:36.818Z,13.70
2022-12-31T09:58:17.875Z,13.80
2022-12-31T10:00:52.883Z,13.90
2022-12-31T10:03:41.638Z,13.90
2022-12-31T10:06:22.988Z,13.90
2022-12-31T10:09:08.930Z,13.90
2022-12-31T10:11:58.661Z,13.90
2022-12-31T10:14:47.175Z,14.20
2022-12-31T10:17:30.278Z,14.50
2022-12-31T10:20:25.558Z,14.60
2022-12-31T10:23:22.559Z,14.70
2022-12-31T10:26:17.802Z,14.80
2022-12-31T10:28:54.797Z,14.80
2022-12-31T10:31:38.572Z,14.80
2022-12-31T10:34:15.699Z,14.70
2022-12-31T10:36:55.371Z,14.70
2022-12-31T10:39:44.784Z,14.80
2022-12-31T10:42:34.666Z,14.80
2022-12-31T10:45:23.309Z,15.00
2022-12-31T10:48:38.048Z,15.10
2022-12-31T10:51:28.478Z,15.30
2022-12-31T10:54:38.941Z,15.30
2022-12-31T10:57:40.178Z,15.20
2022-12-31T11:00:19.549Z,15.10
2022-12-31T11:03:52.872Z,14.90
2022-12-31T11:07:09.038Z,14.80
2022-12-31T11:10:18.658Z,14.70
2022-12-31T11:13:34.589Z,14.70
2022-12-31T11:16:20.628Z,14.60
2022-12-31T11:18:56.891Z,14.60
2022-12-31T11:21:41.981Z,14.60
2022-12-31T11:24:22.978Z,14.40
2022-12-31T11:27:03.635Z,14.30
2022-12-31T11:29:48.822Z,14.30
2022-12-31T11:32:27.916Z,14.20
2022-12-31T11:35:19.098Z,14.20
2022-12-31T11:37:49.650Z,14.10
2022-12-31T11:40:42.509Z,14.20
2022-12-31T11:43:23.542Z,14.20
2022-12-31T11:46:27.758Z,14.30
2022-12-31T11:49:21.499Z,14.50
2022-12-31T11:52:11.718Z,14.60
2022-12-31T11:55:04.982Z,14.60
2022-12-31T11:57:36.314Z,14.70
2022-12-31T12:00:14.553Z,14.80
2022-12-31T12:02:45.496Z,14.90
2022-12-31T12:05:18.366Z,14.90
2022-12-31T12:07:46.626Z,15.00
2022-12-31T12:10:28.030Z,15.10
2022-12-31T12:13:01.820Z,15.00
2022-12-31T12:15:33.144Z,15.00
2022-12-31T12:18:07.239Z,15.00
2022-12-31T12:20:39.279Z,14.90
2022-12-31T12:23:15.976Z,14.80
2022-12-31T12:25:50.330Z,14.70
2022-12-31T12:29:07.717Z,14.70
2022-12-31T12:31:36.144Z,14.60
2022-12-31T12:34:05.119Z,14.50
2022-12-31T12:36:34.604Z,14.50
2022-12-31T12:39:04.506Z,14.40
2022-12-31T12:41:33.272Z,14.40
2022-12-31T12:44:06.948Z,14.40
2022-12-31T12:46:37.160Z,14.40
2022-12-31T12:49:05.661Z,14.40
2022-12-31T12:51:51.355Z,14.40
2022-12-31T12:54:37.178Z,14.40
2022-12-31T12:57:13.871Z,14.40
2022-12-31T13:00:04.387Z,14.40
2022-12-31T13:03:02.372Z,14.40
2022-12-31T13:05:43.779Z,14.30
2022-12-31T13:08:23.268Z,14.30
2022-12-31T13:11:03.376Z,14.30
2022-12-31T13:13:39.534Z,14.30
2022-12-31T13:17:57.293Z,14.20
2022-12-31T13:23:44.081Z,14.00
2022-12-31T13:26:20.203Z,14.00
2022-12-31T13:29:10.289Z,13.90
2022-12-31T13:31:41.393Z,13.90
2022-12-31T13:34:17.056Z,13.80
2022-12-31T13:36:48.667Z,13.80
2022-12-31T13:39:21.812Z,13.80
2022-12-31T13:41:56.307Z,13.70
2022-12-31T13:44:31.961Z,13.70
2022-12-31T13:47:04.669Z,13.70
2022-12-31T13:49:33.779Z,13.60
2022-12-31T13:52:07.951Z,13.60
2022-12-31T13:54:43.581Z,13.50
2022-12-31T13:57:21.501Z,13.50
2022-12-31T13:59:55.767Z,13.40
2022-12-31T14:02:34.584Z,13.40
2022-12-31T14:05:07.637Z,13.30
2022-12-31T14:07:45.297Z,13.30
2022-12-31T14:10:16.306Z,13.20
2022-12-31T14:12:51.866Z,13.20
2022-12-31T14:15:24.994Z,13.10
2022-12-31T14:18:01.719Z,13.20
2022-12-31T14:20:36.384Z,13.20
2022-12-31T14:23:13.402Z,13.20
2022-12-31T14:25:49.051Z,13.30
2022-12-31T14:28:22.265Z,13.20
2022-12-31T14:30:54.831Z,13.20
2022-12-31T14:33:40.606Z,13.10
2022-12-31T14:36:20.434Z,13.10
2022-12-31T14:38:59.561Z,13.10
2022-12-31T14:41:45.976Z,13.00
2022-12-31T14:44:27.666Z,12.90
2022-12-31T14:47:06.689Z,12.80
2022-12-31T14:49:45.540Z,12.70
2022-12-31T14:52:25.101Z,12.60
2022-12-31T14:55:01.994Z,12.50
2022-12-31T14:58:16.773Z,12.50
2022-12-31T15:00:35.142Z,12.40
2022-12-31T15:03:04.791Z,12.40
2022-12-31T15:05:34.485Z,12.30
2022-12-31T15:08:24.626Z,12.30
2022-12-31T15:11:06.971Z,12.20
2022-12-31T15:13:50.621Z,12.10
2022-12-31T15:16:36.278Z,12.00
2022-12-31T15:19:51.651Z,11.90
2022-12-31T15:22:34.776Z,11.80
2022-12-31T15:25:03.484Z,11.70
2022-12-31T15:27:37.118Z,11.60
2022-12-31T15:30:08.199Z,11.60
2022-12-31T15:32:38.986Z,11.50
2022-12-31T15:35:26.590Z,11.50
2022-12-31T15:38:02.519Z,11.50
2022-12-31T15:40:31.604Z,11.50
2022-12-31T15:43:03.513Z,11.60
2022-12-31T15:45:38.341Z,11.60
2022-12-31T15:48:14.373Z,11.50
2022-12-31T15:50:44.175Z,11.60
2022-12-31T15:53:25.841Z,11.60
2022-12-31T15:55:55.814Z,11.60
2022-12-31T15:58:27.412Z,11.70
2022-12-31T16:01:04.488Z,11.70
2022-12-31T16:03:33.599Z,11.70
2022-12-31T16:06:03.422Z,11.70
2022-12-31T16:08:34.585Z,11.60
2022-12-31T16:11:05.730Z,11.50
2022-12-31T16:13:36.381Z,11.40
2022-12-31T16:16:08.255Z,11.30
2022-12-31T16:18:40.293Z,11.30
2022-12-31T16:21:23.448Z,11.20
2022-12-31T16:23:52.346Z,11.20
2022-12-31T16:26:20.797Z,11.10
2022-12-31T16:28:49.248Z,11.10
2022-12-31T16:31:20.842Z,11.10
2022-12-31T16:33:49.228Z,11.00
2022-12-31T16:36:21.515Z,11.00
2022-12-31T16:38:50.127Z,10.90
2022-12-31T16:41:20.011Z,10.90
2022-12-31T16:43:50.217Z,10.90
2022-12-31T16:46:25.550Z,10.90
2022-12-31T16:48:56.695Z,10.90
2022-12-31T16:51:30.099Z,10.80
2022-12-31T16:53:59.064Z,10.80
2022-12-31T16:56:33.057Z,10.80
2022-12-31T16:59:04.320Z,10.80
2022-12-31T17:01:36.701Z,10.80
2022-12-31T17:04:07.565Z,10.80
2022-12-31T17:06:35.588Z,10.80
2022-12-31T17:09:14.030Z,10.80
2022-12-31T17:11:50.395Z,10.80
2022-12-31T17:14:20.234Z,10.70
2022-12-31T17:17:02.693Z,10.70
2022-12-31T17:19:43.517Z,10.70
2022-12-31T17:22:21.732Z,10.70
2022-12-31T17:24:52.714Z,10.70
2022-12-31T17:27:21.052Z,10.70
2022-12-31T17:29:49.083Z,10.70
2022-12-31T17:32:31.988Z,10.70
2022-12-31T17:34:59.838Z,10.70
2022-12-31T17:37:29.584Z,10.70
2022-12-31T17:42:49.532Z,10.60
2022-12-31T17:45:21.506Z,10.60
2022-12-31T17:47:53.829Z,10.60
2022-12-31T17:50:24.883Z,10.60
2022-12-31T17:52:56.778Z,10.60
2022-12-31T17:55:24.991Z,10.60
2022-12-31T17:57:54.986Z,10.60
2022-12-31T18:00:26.432Z,10.60
2022-12-31T18:02:56.100Z,10.60
2022-12-31T18:05:25.644Z,10.60
2022-12-31T18:07:54.111Z,10.60
2022-12-31T18:10:24.908Z,10.50
2022-12-31T18:12:53.291Z,10.50
2022-12-31T18:15:23.264Z,10.50
2022-12-31T18:17:51.854Z,10.50
2022-12-31T18:20:21.310Z,10.50
2022-12-31T18:22:49.434Z,10.50
2022-12-31T18:25:20.781Z,10.50
2022-12-31T18:27:49.427Z,10.40
2022-12-31T18:30:17.780Z,10.40
2022-12-31T18:32:46.960Z,10.40
2022-12-31T18:35:48.545Z,10.30
2022-12-31T18:38:11.586Z,10.30
2022-12-31T18:40:42.662Z,10.30
2022-12-31T18:43:15.855Z,10.30
2022-12-31T18:45:43.970Z,10.30
2022-12-31T18:48:13.352Z,10.40
2022-12-31T18:50:41.690Z,10.40
2022-12-31T18:53:16.695Z,10.40
2022-12-31T18:55:48.715Z,10.40
2022-12-31T18:58:17.171Z,10.40
2022-12-31T19:00:45.948Z,10.40
2022-12-31T19:03:18.141Z,10.40
2022-12-31T19:05:49.574Z,10.40
2022-12-31T19:08:19.254Z,10.40
2022-12-31T19:10:47.872Z,10.40
2022-12-31T19:13:17.773Z,10.50
2022-12-31T19:15:47.278Z,10.50
2022-12-31T19:18:15.449Z,10.50
2022-12-31T19:20:44.012Z,10.50
2022-12-31T19:23:16.340Z,10.50
2022-12-31T19:25:47.352Z,10.50
2022-12-31T19:28:18.467Z,10.50
2022-12-31T19:30:46.854Z,10.50
2022-12-31T19:33:15.684Z,10.40
2022-12-31T19:35:44.392Z,10.40
2022-12-31T19:38:18.893Z,10.40
2022-12-31T19:40:48.862Z,10.40
2022-12-31T19:43:18.870Z,10.40
2022-12-31T19:45:47.094Z,10.40
2022-12-31T19:48:16.764Z,10.40
2022-12-31T19:50:47.067Z,10.40
2022-12-31T19:53:17.997Z,10.40
2022-12-31T19:55:46.324Z,10.30
2022-12-31T19:58:18.660Z,10.40
2022-12-31T20:00:53.930Z,10.30
2022-12-31T20:03:25.463Z,10.30
2022-12-31T20:06:02.819Z,10.40
2022-12-31T20:08:30.906Z,10.30
2022-12-31T20:10:59.057Z,10.30
2022-12-31T20:13:28.634Z,10.40
2022-12-31T20:15:56.572Z,10.40
2022-12-31T20:18:24.531Z,10.40
2022-12-31T20:20:56.060Z,10.40
2022-12-31T20:23:24.167Z,10.40
2022-12-31T20:25:58.544Z,10.40
2022-12-31T20:28:28.311Z,10.40
2022-12-31T20:30:56.558Z,10.40
2022-12-31T20:33:24.884Z,10.40
2022-12-31T20:35:52.935Z,10.40
2022-12-31T20:38:20.946Z,10.40
2022-12-31T20:40:48.898Z,10.40
2022-12-31T20:43:16.922Z,10.40
2022-12-31T20:45:47.725Z,10.40
2022-12-31T20:48:15.703Z,10.40
2022-12-31T20:50:43.639Z,10.40
2022-12-31T20:53:11.606Z,10.40
2022-12-31T20:55:39.586Z,10.40
2022-12-31T20:58:07.549Z,10.40
2022-12-31T21:00:35.512Z,10.30
2022-12-31T21:03:18.636Z,10.30
2022-12-31T21:05:55.056Z,10.30
2022-12-31T21:08:23.500Z,10.30
2022-12-31T21:10:51.942Z,10.30
2022-12-31T21:13:22.798Z,10.30
2022-12-31T21:15:51.583Z,10.30
2022-12-31T21:18:21.687Z,10.30
2022-12-31T21:20:50.372Z,10.30
2022-12-31T21:23:19.610Z,10.30
2022-12-31T21:25:50.920Z,10.30
2022-12-31T21:28:18.958Z,10.30
2022-12-31T21:30:47.003Z,10.30
2022-12-31T21:33:15.077Z,10.30
2022-12-31T21:35:51.807Z,10.30
2022-12-31T21:38:21.691Z,10.30
2022-12-31T21:40:50.099Z,10.30
2022-12-31T21:43:18.080Z,10.20
2022-12-31T21:45:46.298Z,10.30
2022-12-31T21:48:23.254Z,10.30
2022-12-31T21:50:54.251Z,10.30
2022-12-31T21:53:27.921Z,10.20
2022-12-31T21:56:14.528Z,10.30
2022-12-31T21:58:44.020Z,10.20
2022-12-31T22:01:34.921Z,10.20
2022-12-31T22:04:02.941Z,10.20
2022-12-31T22:06:34.564Z,10.20
2022-12-31T22:09:02.557Z,10.20
2022-12-31T22:11:30.553Z,10.20
2022-12-31T22:13:58.619Z,10.20
2022-12-31T22:16:26.742Z,10.20
2022-12-31T22:18:56.641Z,10.10
2022-12-31T22:21:26.580Z,10.20
2022-12-31T22:23:58.626Z,10.20
2022-12-31T22:26:28.613Z,10.10
2022-12-31T22:28:59.339Z,10.10
2022-12-31T22:31:30.443Z,10.10
2022-12-31T22:33:59.465Z,10.10
2022-12-31T22:36:27.617Z,10.10
2022-12-31T22:38:59.625Z,10.10
2022-12-31T22:41:28.939Z,10.10
2022-12-31T22:44:03.520Z,10.10
2022-12-31T22:46:33.022Z,10.10
2022-12-31T22:49:02.361Z,10.10
2022-12-31T22:51:55.741Z,10.10
2022-12-31T22:54:20.646Z,10.10
2022-12-31T22:56:48.731Z,10.10
2022-12-31T22:59:16.701Z,10.20
2022-12-31T23:01:44.777Z,10.10
2022-12-31T23:04:13.291Z,10.10
2022-12-31T23:06:44.278Z,10.10
2022-12-31T23:09:30.757Z,10.10
2022-12-31T23:12:00.786Z,10.10
2022-12-31T23:14:46.857Z,10.10
2022-12-31T23:17:35.597Z,10.10
2022-12-31T23:20:20.989Z,10.10
2022-12-31T23:23:06.879Z,10.10
2022-12-31T23:25:35.646Z,10.10
2022-12-31T23:28:05.782Z,10.10
2022-12-31T23:30:33.760Z,10.10
2022-12-31T23:33:01.756Z,10.10
2022-12-31T23:35:30.014Z,10.10
2022-12-31T23:37:58.139Z,10.10
2022-12-31T23:40:34.283Z,10.10
2022-12-31T23:43:05.745Z,10.10
2022-12-31T23:45:34.755Z,10.00
2022-12-31T23:48:03.076Z,10.00
2022-12-31T23:50:31.027Z,10.00
2022-12-31T23:52:59.024Z,10.10
2022-12-31T23:55:27.086Z,10.10
2022-12-31T23:57:55.894Z,10.10
